Time;durP1;ratioP1;P1;durP2;ratioP2;P2;SDS_P1;SDS_P2;PMS_P1;PMS_P2;Temp;Humidity;BMP_temperature;BMP_pressure;BME280_temperature;BME280_humidity;BME280_pressure;Samples;Min_cycle;Max_cycle;Signal;HPM_P1;HPM_P2
2022/05/12 00:00:35;;;;;;;5.75;3.47;;;;;;;;;;2077092;28;20022;-64
2022/05/12 00:01:54;;;;;;;3.90;3.50;;;;;;;;;;2071247;28;20030;-63
2022/05/12 00:03:14;;;;;;;4.75;3.63;;;;;;;;;;2077499;28;20034;-63
2022/05/12 00:04:34;;;;;;;8.63;3.60;;;;;;;;;;2078949;28;20030;-63
2022/05/12 00:05:53;;;;;;;4.75;3.50;;;;;;;;;;2079538;28;20462;-62
2022/05/12 00:07:12;;;;;;;4.40;3.08;;;;;;;;;;2081890;28;20034;-64
2022/05/12 00:08:31;;;;;;;7.15;3.78;;;;;;;;;;2082949;28;20029;-63
2022/05/12 00:09:50;;;;;;;9.18;4.10;;;;;;;;;;2073927;28;20029;-65
2022/05/12 00:11:09;;;;;;;8.80;4.10;;;;;;;;;;2076086;28;20435;-65
2022/05/12 00:12:28;;;;;;;11.35;4.05;;;;;;;;;;2080942;28;20029;-65
2022/05/12 00:13:47;;;;;;;5.43;3.15;;;;;;;;;;2081352;28;20547;-65
2022/05/12 00:15:08;;;;;;;6.03;4.05;;;;;;;;;;2071754;28;20038;-65
2022/05/12 00:16:27;;;;;;;7.03;4.22;;;;;;;;;;2077790;28;20037;-66
2022/05/12 00:17:46;;;;;;;3.95;3.60;;;;;;;;;;2081720;28;20025;-65
2022/05/12 00:19:05;;;;;;;10.52;3.70;;;;;;;;;;2081324;28;20415;-65
2022/05/12 00:20:24;;;;;;;5.18;3.50;;;;;;;;;;2081434;28;20033;-64
2022/05/12 00:21:43;;;;;;;5.65;3.28;;;;;;;;;;2082033;28;20022;-65
2022/05/12 00:23:28;;;;;;;7.53;3.40;;;;;;;;;;2081253;28;20057;-64
2022/05/12 00:24:47;;;;;;;17.70;4.10;;;;;;;;;;2080365;28;20041;-64
2022/05/12 00:26:06;;;;;;;5.75;3.25;;;;;;;;;;2079961;28;20029;-64
2022/05/12 00:27:25;;;;;;;7.00;3.55;;;;;;;;;;2081950;28;20480;-64
2022/05/12 00:28:44;;;;;;;5.95;3.35;;;;;;;;;;2081071;28;20068;-64
2022/05/12 00:30:05;;;;;;;5.15;3.63;;;;;;;;;;2081307;28;20021;-64
2022/05/12 00:31:24;;;;;;;7.72;4.20;;;;;;;;;;2081540;28;20025;-64
2022/05/12 00:32:44;;;;;;;8.13;3.38;;;;;;;;;;2080997;28;20400;-64
2022/05/12 00:34:04;;;;;;;5.00;3.75;;;;;;;;;;2082190;28;20400;-64
2022/05/12 00:35:23;;;;;;;4.15;3.63;;;;;;;;;;2080463;28;20025;-64
2022/05/12 00:36:42;;;;;;;4.18;3.15;;;;;;;;;;2076401;28;20022;-64
2022/05/12 00:38:01;;;;;;;5.88;3.67;;;;;;;;;;2079499;28;20025;-64
2022/05/12 00:39:20;;;;;;;6.95;3.42;;;;;;;;;;2085698;28;20041;-64
2022/05/12 00:40:41;;;;;;;5.38;3.45;;;;;;;;;;2090085;28;20475;-64
2022/05/12 00:42:00;;;;;;;8.70;3.50;;;;;;;;;;2089683;28;20481;-64
2022/05/12 00:43:32;;;;;;;9.27;4.03;;;;;;;;;;2090062;28;20021;-64
2022/05/12 00:44:51;;;;;;;10.10;3.40;;;;;;;;;;2090373;28;20025;-64
2022/05/12 00:46:11;;;;;;;4.82;3.47;;;;;;;;;;2088783;28;20060;-65
2022/05/12 00:47:30;;;;;;;4.93;3.55;;;;;;;;;;2081328;28;20025;-64
2022/05/12 00:48:50;;;;;;;7.57;3.47;;;;;;;;;;2086880;28;20067;-65
2022/05/12 00:50:10;;;;;;;7.63;3.30;;;;;;;;;;2089690;28;20088;-65
2022/05/12 00:51:35;;;;;;;6.68;3.25;;;;;;;;;;2088421;28;20029;-64
2022/05/12 00:52:53;;;;;;;5.10;3.40;;;;;;;;;;2089188;28;20585;-64
2022/05/12 00:54:29;;;;;;;7.40;2.75;;;;;;;;;;2087662;28;20040;-64
2022/05/12 00:55:47;;;;;;;7.85;3.40;;;;;;;;;;2089704;28;20037;-64
2022/05/12 00:57:08;;;;;;;4.75;2.97;;;;;;;;;;2080058;28;20030;-64
2022/05/12 00:58:27;;;;;;;5.43;3.50;;;;;;;;;;2085597;28;20033;-64
2022/05/12 00:59:47;;;;;;;6.20;2.65;;;;;;;;;;2088594;28;20483;-63
2022/05/12 01:01:07;;;;;;;6.05;3.20;;;;;;;;;;2088723;28;21624;-64
2022/05/12 01:02:27;;;;;;;9.05;3.22;;;;;;;;;;2088859;28;20100;-64
2022/05/12 01:03:47;;;;;;;6.30;3.05;;;;;;;;;;2089579;28;20025;-64
2022/05/12 01:05:06;;;;;;;8.73;2.78;;;;;;;;;;2087809;28;20033;-64
2022/05/12 01:06:25;;;;;;;8.80;3.35;;;;;;;;;;2078791;28;20037;-63
2022/05/12 01:07:44;;;;;;;5.07;2.88;;;;;;;;;;2083649;28;20025;-63
2022/05/12 01:09:03;;;;;;;3.22;2.55;;;;;;;;;;2088309;28;20033;-63
2022/05/12 01:10:23;;;;;;;5.90;2.38;;;;;;;;;;2088841;28;20085;-64
2022/05/12 01:11:42;;;;;;;5.90;2.70;;;;;;;;;;2086535;28;20040;-62
2022/05/12 01:13:01;;;;;;;5.10;2.85;;;;;;;;;;2086878;28;20112;-65
2022/05/12 01:14:20;;;;;;;7.97;2.50;;;;;;;;;;2087588;28;20120;-63
2022/05/12 01:15:47;;;;;;;3.20;2.17;;;;;;;;;;2077872;28;20559;-63
2022/05/12 01:17:07;;;;;;;4.25;2.92;;;;;;;;;;2076694;28;20404;-63
2022/05/12 01:18:28;;;;;;;10.00;2.67;;;;;;;;;;2074835;28;20449;-63
2022/05/12 01:19:48;;;;;;;7.63;2.85;;;;;;;;;;2085133;28;20041;-63
2022/05/12 01:21:09;;;;;;;7.38;2.67;;;;;;;;;;2080434;28;20523;-63
2022/05/12 01:22:37;;;;;;;7.43;2.72;;;;;;;;;;2086307;28;20037;-64
2022/05/12 01:23:56;;;;;;;5.22;2.53;;;;;;;;;;2088870;28;20037;-63
2022/05/12 01:25:17;;;;;;;5.57;2.17;;;;;;;;;;2080953;28;20041;-64
2022/05/12 01:26:36;;;;;;;5.47;2.75;;;;;;;;;;2085648;28;20032;-63
2022/05/12 01:27:55;;;;;;;5.18;2.90;;;;;;;;;;2090130;28;20029;-63
2022/05/12 01:29:14;;;;;;;8.15;3.33;;;;;;;;;;2088701;28;20427;-63
2022/05/12 01:30:33;;;;;;;6.88;2.50;;;;;;;;;;2089399;28;20025;-64
2022/05/12 01:31:52;;;;;;;6.78;2.97;;;;;;;;;;2080650;28;20357;-63
2022/05/12 01:33:11;;;;;;;4.53;2.78;;;;;;;;;;2085614;28;20060;-64
2022/05/12 01:34:30;;;;;;;6.25;3.00;;;;;;;;;;2089466;28;20430;-63
2022/05/12 01:35:49;;;;;;;4.53;2.75;;;;;;;;;;2090104;28;21157;-63
2022/05/12 01:37:08;;;;;;;5.75;2.97;;;;;;;;;;2088717;28;20068;-64
2022/05/12 01:38:27;;;;;;;6.50;2.50;;;;;;;;;;2086744;28;20041;-64
2022/05/12 01:39:46;;;;;;;4.03;2.80;;;;;;;;;;2087921;28;20025;-64
2022/05/12 01:41:04;;;;;;;4.57;2.50;;;;;;;;;;2089615;28;20025;-65
2022/05/12 01:42:23;;;;;;;9.80;2.90;;;;;;;;;;2087620;28;20426;-65
2022/05/12 01:43:42;;;;;;;4.60;2.42;;;;;;;;;;2088720;28;20029;-64
2022/05/12 01:45:03;;;;;;;6.55;3.30;;;;;;;;;;2088023;28;20021;-64
2022/05/12 01:46:21;;;;;;;4.03;2.83;;;;;;;;;;2088196;28;20025;-64
2022/05/12 01:47:41;;;;;;;9.55;3.22;;;;;;;;;;2088615;28;20025;-64
2022/05/12 01:48:59;;;;;;;7.43;3.00;;;;;;;;;;2088874;28;20382;-64
2022/05/12 01:50:19;;;;;;;6.38;3.05;;;;;;;;;;2089306;28;20387;-64
2022/05/12 01:51:39;;;;;;;7.05;2.88;;;;;;;;;;2081107;28;20491;-65
2022/05/12 01:52:58;;;;;;;4.20;3.00;;;;;;;;;;2085413;28;20450;-64
2022/05/12 01:54:17;;;;;;;6.75;3.00;;;;;;;;;;2088084;28;20056;-64
2022/05/12 01:55:36;;;;;;;6.47;2.72;;;;;;;;;;2088780;28;20025;-64
2022/05/12 01:56:55;;;;;;;4.85;3.25;;;;;;;;;;2087982;28;20530;-65
2022/05/12 01:58:15;;;;;;;9.32;3.35;;;;;;;;;;2079587;28;20449;-64
2022/05/12 01:59:34;;;;;;;5.95;3.55;;;;;;;;;;2084815;28;20025;-64
2022/05/12 02:00:53;;;;;;;5.80;3.20;;;;;;;;;;2089104;28;20455;-64
2022/05/12 02:02:12;;;;;;;8.02;3.45;;;;;;;;;;2088931;28;20033;-64
2022/05/12 02:03:31;;;;;;;8.60;3.95;;;;;;;;;;2079195;28;20026;-64
2022/05/12 02:04:50;;;;;;;5.03;3.30;;;;;;;;;;2085547;28;20045;-64
2022/05/12 02:06:09;;;;;;;6.53;3.33;;;;;;;;;;2089277;28;20493;-65
2022/05/12 02:07:28;;;;;;;11.40;4.40;;;;;;;;;;2088154;28;20021;-65
2022/05/12 02:08:47;;;;;;;7.45;3.55;;;;;;;;;;2089265;28;20483;-64
2022/05/12 02:10:07;;;;;;;8.25;3.80;;;;;;;;;;2089252;28;20029;-64
2022/05/12 02:11:26;;;;;;;7.93;3.97;;;;;;;;;;2088905;28;20033;-65
2022/05/12 02:12:45;;;;;;;6.82;4.03;;;;;;;;;;2088678;28;20033;-64
2022/05/12 02:14:05;;;;;;;8.90;3.72;;;;;;;;;;2089178;28;20029;-64
2022/05/12 02:15:24;;;;;;;4.90;3.45;;;;;;;;;;2079776;28;20033;-64
2022/05/12 02:16:43;;;;;;;5.78;4.07;;;;;;;;;;2085984;28;20104;-64
2022/05/12 02:18:02;;;;;;;9.32;4.00;;;;;;;;;;2088632;28;20449;-64
2022/05/12 02:19:21;;;;;;;7.90;3.35;;;;;;;;;;2088606;28;20029;-64
2022/05/12 02:20:40;;;;;;;9.63;3.80;;;;;;;;;;2088445;28;20030;-64
2022/05/12 02:22:02;;;;;;;4.72;3.60;;;;;;;;;;2088420;28;20033;-64
2022/05/12 02:23:21;;;;;;;6.57;4.05;;;;;;;;;;2087794;28;20029;-64
2022/05/12 02:24:40;;;;;;;6.30;3.47;;;;;;;;;;2085611;28;20029;-65
2022/05/12 02:25:59;;;;;;;6.85;3.70;;;;;;;;;;2088745;28;20108;-64
2022/05/12 02:27:20;;;;;;;7.13;3.60;;;;;;;;;;2080169;28;20033;-64
2022/05/12 02:28:39;;;;;;;6.25;3.78;;;;;;;;;;2085234;28;20060;-64
2022/05/12 02:29:57;;;;;;;7.28;3.70;;;;;;;;;;2080522;28;20041;-64
2022/05/12 02:31:17;;;;;;;8.52;4.07;;;;;;;;;;2084875;28;20025;-64
2022/05/12 02:32:35;;;;;;;6.05;4.35;;;;;;;;;;2088301;28;20029;-63
2022/05/12 02:33:54;;;;;;;8.93;4.07;;;;;;;;;;2088640;28;20041;-63
2022/05/12 02:35:14;;;;;;;8.60;4.05;;;;;;;;;;2086432;28;20041;-64
2022/05/12 02:36:33;;;;;;;9.35;3.42;;;;;;;;;;2088845;28;20033;-64
2022/05/12 02:37:52;;;;;;;6.55;3.97;;;;;;;;;;2082515;28;20033;-64
2022/05/12 02:39:10;;;;;;;8.48;4.03;;;;;;;;;;2084772;28;20045;-64
2022/05/12 02:40:29;;;;;;;6.97;3.90;;;;;;;;;;2090975;28;20037;-64
2022/05/12 02:41:48;;;;;;;7.88;3.80;;;;;;;;;;2090295;28;20025;-64
2022/05/12 02:43:23;;;;;;;9.93;4.20;;;;;;;;;;2091009;28;20033;-64
2022/05/12 02:44:42;;;;;;;4.88;3.70;;;;;;;;;;2089795;28;20029;-65
2022/05/12 02:46:03;;;;;;;5.20;3.90;;;;;;;;;;2090028;28;20017;-64
2022/05/12 02:47:21;;;;;;;8.32;3.67;;;;;;;;;;2081261;28;20025;-64
2022/05/12 02:48:44;;;;;;;7.28;3.63;;;;;;;;;;2086524;28;20104;-64
2022/05/12 02:50:04;;;;;;;6.80;3.83;;;;;;;;;;2090505;28;20108;-64
2022/05/12 02:51:23;;;;;;;12.52;3.47;;;;;;;;;;2090378;28;20033;-64
2022/05/12 02:52:42;;;;;;;4.97;3.38;;;;;;;;;;2089563;28;20484;-64
2022/05/12 02:54:01;;;;;;;7.80;3.40;;;;;;;;;;2090286;28;20033;-64
2022/05/12 02:55:20;;;;;;;12.18;3.38;;;;;;;;;;2089849;28;20423;-64
2022/05/12 02:56:39;;;;;;;7.60;3.85;;;;;;;;;;2090964;28;20025;-64
2022/05/12 02:57:58;;;;;;;6.45;3.92;;;;;;;;;;2082322;28;20029;-65
2022/05/12 02:59:17;;;;;;;9.48;4.13;;;;;;;;;;2086006;28;20032;-64
2022/05/12 03:00:36;;;;;;;6.57;4.05;;;;;;;;;;2089642;28;20017;-64
2022/05/12 03:01:55;;;;;;;10.38;3.83;;;;;;;;;;2090645;28;20372;-63
2022/05/12 03:03:14;;;;;;;7.55;3.70;;;;;;;;;;2086728;28;20022;-64
2022/05/12 03:04:33;;;;;;;6.97;4.18;;;;;;;;;;2088864;28;20053;-63
2022/05/12 03:05:53;;;;;;;5.80;3.60;;;;;;;;;;2090835;28;20029;-64
2022/05/12 03:07:12;;;;;;;8.38;3.95;;;;;;;;;;2090550;28;20029;-64
2022/05/12 03:08:31;;;;;;;8.63;3.97;;;;;;;;;;2090375;28;20475;-64
2022/05/12 03:09:50;;;;;;;8.20;4.20;;;;;;;;;;2090879;28;20487;-65
2022/05/12 03:11:09;;;;;;;7.63;3.55;;;;;;;;;;2090694;28;20029;-64
2022/05/12 03:12:30;;;;;;;5.45;3.72;;;;;;;;;;2089949;28;20037;-64
2022/05/12 03:13:50;;;;;;;4.53;3.60;;;;;;;;;;2090601;28;20395;-64
2022/05/12 03:15:10;;;;;;;6.30;3.35;;;;;;;;;;2087281;28;20388;-64
2022/05/12 03:16:29;;;;;;;7.45;4.20;;;;;;;;;;2090435;28;20450;-64
2022/05/12 03:17:48;;;;;;;5.97;4.10;;;;;;;;;;2090966;28;20032;-65
2022/05/12 03:19:08;;;;;;;7.18;3.90;;;;;;;;;;2089634;28;20092;-65
2022/05/12 03:20:29;;;;;;;6.93;4.18;;;;;;;;;;2089794;28;20427;-65
2022/05/12 03:21:48;;;;;;;11.38;3.90;;;;;;;;;;2091951;28;20025;-65
2022/05/12 03:23:07;;;;;;;14.77;4.53;;;;;;;;;;2081325;28;20022;-64
2022/05/12 03:24:26;;;;;;;7.68;4.55;;;;;;;;;;2086586;28;20507;-64
2022/05/12 03:25:45;;;;;;;7.05;4.18;;;;;;;;;;2089791;28;20029;-64
2022/05/12 03:27:04;;;;;;;7.32;3.80;;;;;;;;;;2088897;28;20017;-64
2022/05/12 03:28:23;;;;;;;4.93;3.83;;;;;;;;;;2081262;28;20030;-64
2022/05/12 03:29:42;;;;;;;5.57;3.92;;;;;;;;;;2086113;28;20059;-64
2022/05/12 03:31:01;;;;;;;9.40;4.30;;;;;;;;;;2090289;28;20029;-64
2022/05/12 03:32:21;;;;;;;10.05;4.40;;;;;;;;;;2089871;28;20116;-64
2022/05/12 03:33:40;;;;;;;8.07;3.75;;;;;;;;;;2090864;28;20029;-64
2022/05/12 03:34:59;;;;;;;11.02;4.80;;;;;;;;;;2089147;28;20581;-64
2022/05/12 03:36:18;;;;;;;8.77;4.78;;;;;;;;;;2089389;28;20044;-64
2022/05/12 03:37:38;;;;;;;8.07;4.15;;;;;;;;;;2090419;28;20041;-65
2022/05/12 03:38:57;;;;;;;5.72;3.65;;;;;;;;;;2088679;28;20048;-63
2022/05/12 03:40:19;;;;;;;8.93;4.03;;;;;;;;;;2089323;28;20025;-63
2022/05/12 03:41:38;;;;;;;5.70;3.50;;;;;;;;;;2088404;28;20029;-64
2022/05/12 03:42:58;;;;;;;8.00;3.88;;;;;;;;;;2084035;28;20029;-63
2022/05/12 03:45:55;;;;;;;8.90;4.20;;;;;;;;;;2088382;28;20072;-64
2022/05/12 03:47:15;;;;;;;5.70;3.92;;;;;;;;;;2090375;28;20029;-64
2022/05/12 03:48:35;;;;;;;8.20;3.63;;;;;;;;;;2089828;28;20025;-64
2022/05/12 03:49:57;;;;;;;6.80;4.00;;;;;;;;;;2089517;28;20033;-64
2022/05/12 03:51:16;;;;;;;7.82;3.78;;;;;;;;;;2089669;28;20029;-64
2022/05/12 03:52:35;;;;;;;10.13;3.47;;;;;;;;;;2089787;28;20487;-64
2022/05/12 03:53:54;;;;;;;9.57;3.85;;;;;;;;;;2090015;28;20032;-64
2022/05/12 03:55:16;;;;;;;9.45;3.90;;;;;;;;;;2080374;28;20460;-64
2022/05/12 03:56:35;;;;;;;7.65;3.88;;;;;;;;;;2087206;28;20471;-64
2022/05/12 03:57:55;;;;;;;8.63;3.67;;;;;;;;;;2089968;28;20025;-63
2022/05/12 03:59:14;;;;;;;5.00;2.78;;;;;;;;;;2089067;28;20029;-64
2022/05/12 04:00:34;;;;;;;11.38;3.88;;;;;;;;;;2089685;28;20033;-64
2022/05/12 04:01:53;;;;;;;11.60;3.38;;;;;;;;;;2088978;28;20515;-64
2022/05/12 04:03:12;;;;;;;6.63;3.45;;;;;;;;;;2088532;28;20037;-64
2022/05/12 04:04:31;;;;;;;6.32;3.00;;;;;;;;;;2090180;28;20029;-64
2022/05/12 04:05:50;;;;;;;13.13;3.58;;;;;;;;;;2090411;28;20049;-64
2022/05/12 04:07:11;;;;;;;7.38;3.20;;;;;;;;;;2090434;28;20029;-64
2022/05/12 04:08:30;;;;;;;8.30;3.28;;;;;;;;;;2090348;28;20025;-64
2022/05/12 04:09:49;;;;;;;12.65;3.42;;;;;;;;;;2081713;28;20025;-65
2022/05/12 04:11:08;;;;;;;9.38;3.25;;;;;;;;;;2085751;28;20036;-65
2022/05/12 04:12:27;;;;;;;9.40;2.75;;;;;;;;;;2089018;28;20021;-65
2022/05/12 04:13:46;;;;;;;6.22;2.60;;;;;;;;;;2090562;28;20037;-65
2022/05/12 04:15:06;;;;;;;10.73;3.28;;;;;;;;;;2090589;28;20399;-65
2022/05/12 04:16:25;;;;;;;6.97;2.60;;;;;;;;;;2090212;28;20029;-64
2022/05/12 04:17:44;;;;;;;10.23;3.20;;;;;;;;;;2090210;28;20033;-64
2022/05/12 04:19:06;;;;;;;6.30;2.70;;;;;;;;;;2084773;28;20034;-64
2022/05/12 04:20:26;;;;;;;5.53;3.10;;;;;;;;;;2087011;28;20024;-65
2022/05/12 04:21:45;;;;;;;9.35;3.15;;;;;;;;;;2089441;28;20037;-64
2022/05/12 04:23:05;;;;;;;7.47;3.10;;;;;;;;;;2090448;28;20037;-66
2022/05/12 04:24:24;;;;;;;9.25;2.90;;;;;;;;;;2090730;28;20029;-65
2022/05/12 04:25:42;;;;;;;9.98;2.97;;;;;;;;;;2089329;28;20064;-65
2022/05/12 04:27:01;;;;;;;9.52;2.72;;;;;;;;;;2088375;28;20029;-64
2022/05/12 04:28:20;;;;;;;4.50;2.30;;;;;;;;;;2089382;28;20100;-64
2022/05/12 04:29:42;;;;;;;7.00;2.75;;;;;;;;;;2089366;28;20394;-64
2022/05/12 04:31:01;;;;;;;4.93;2.17;;;;;;;;;;2089859;28;20036;-65
2022/05/12 04:32:20;;;;;;;5.15;2.92;;;;;;;;;;2079927;28;20042;-63
2022/05/12 04:35:18;;;;;;;6.93;2.75;;;;;;;;;;2088871;28;20037;-65
2022/05/12 04:36:36;;;;;;;7.28;2.60;;;;;;;;;;2088038;28;20021;-64
2022/05/12 04:37:56;;;;;;;4.70;2.30;;;;;;;;;;2078278;28;20037;-65
2022/05/12 04:39:15;;;;;;;10.63;2.92;;;;;;;;;;2084180;28;20403;-65
2022/05/12 04:40:34;;;;;;;10.90;2.83;;;;;;;;;;2089815;28;20060;-65
2022/05/12 04:41:53;;;;;;;8.85;2.47;;;;;;;;;;2089748;28;20025;-64
2022/05/12 04:43:12;;;;;;;13.05;3.20;;;;;;;;;;2088899;28;20203;-66
2022/05/12 04:44:31;;;;;;;8.50;2.03;;;;;;;;;;2089277;28;20411;-65
2022/05/12 04:45:50;;;;;;;13.70;3.10;;;;;;;;;;2089796;28;20025;-65
2022/05/12 04:47:09;;;;;;;8.45;2.60;;;;;;;;;;2088994;28;20108;-65
2022/05/12 04:48:29;;;;;;;10.20;2.83;;;;;;;;;;2089310;28;20036;-64
2022/05/12 04:49:48;;;;;;;6.90;2.10;;;;;;;;;;2089558;28;20431;-63
2022/05/12 04:51:08;;;;;;;5.75;2.08;;;;;;;;;;2089578;28;20029;-63
2022/05/12 04:52:27;;;;;;;4.90;2.33;;;;;;;;;;2088395;28;20041;-63
2022/05/12 04:53:46;;;;;;;7.47;2.42;;;;;;;;;;2088765;28;20438;-63
2022/05/12 04:55:05;;;;;;;5.93;2.85;;;;;;;;;;2087723;28;20025;-63
2022/05/12 04:56:24;;;;;;;10.55;2.30;;;;;;;;;;2088582;28;20041;-64
2022/05/12 04:57:44;;;;;;;7.25;2.53;;;;;;;;;;2090113;28;20487;-64
2022/05/12 04:59:04;;;;;;;7.80;2.58;;;;;;;;;;2088927;28;20056;-64
2022/05/12 05:00:25;;;;;;;8.98;2.40;;;;;;;;;;2089889;28;20025;-65
2022/05/12 05:01:44;;;;;;;8.48;2.67;;;;;;;;;;2088899;28;20021;-64
2022/05/12 05:03:04;;;;;;;8.32;2.63;;;;;;;;;;2078072;28;20033;-65
2022/05/12 05:04:23;;;;;;;6.57;1.73;;;;;;;;;;2086518;28;20029;-64
2022/05/12 05:05:42;;;;;;;8.43;2.70;;;;;;;;;;2090021;28;20033;-65
2022/05/12 05:07:01;;;;;;;7.28;2.45;;;;;;;;;;2089155;28;20024;-64
2022/05/12 05:08:21;;;;;;;5.78;2.53;;;;;;;;;;2087435;28;20479;-63
2022/05/12 05:09:41;;;;;;;7.57;2.65;;;;;;;;;;2089610;28;20021;-63
2022/05/12 05:11:00;;;;;;;8.65;2.35;;;;;;;;;;2089858;28;20025;-64
2022/05/12 05:12:19;;;;;;;7.35;2.85;;;;;;;;;;2079582;28;20514;-64
2022/05/12 05:13:38;;;;;;;8.70;2.72;;;;;;;;;;2086463;28;20029;-63
2022/05/12 05:14:57;;;;;;;10.27;2.40;;;;;;;;;;2089413;28;20476;-63
2022/05/12 05:16:17;;;;;;;7.57;2.30;;;;;;;;;;2079499;28;20034;-65
2022/05/12 05:17:36;;;;;;;6.55;2.28;;;;;;;;;;2083228;28;20022;-63
2022/05/12 05:18:55;;;;;;;9.10;2.75;;;;;;;;;;2079968;28;20484;-64
2022/05/12 05:20:16;;;;;;;7.70;2.33;;;;;;;;;;2077533;28;20029;-65
2022/05/12 05:21:35;;;;;;;7.40;2.40;;;;;;;;;;2086439;28;20029;-63
2022/05/12 05:22:54;;;;;;;5.93;2.15;;;;;;;;;;2086921;28;20040;-66
2022/05/12 05:24:13;;;;;;;8.63;2.50;;;;;;;;;;2091445;28;20025;-66
2022/05/12 05:25:32;;;;;;;8.80;2.20;;;;;;;;;;2089242;28;20033;-66
2022/05/12 05:26:51;;;;;;;10.95;2.30;;;;;;;;;;2089897;28;20523;-66
2022/05/12 05:28:10;;;;;;;9.65;2.72;;;;;;;;;;2088308;28;20029;-67
2022/05/12 05:29:29;;;;;;;15.35;2.72;;;;;;;;;;2078689;28;20033;-67
2022/05/12 05:30:49;;;;;;;11.13;2.58;;;;;;;;;;2084802;28;20584;-68
2022/05/12 05:32:11;;;;;;;8.27;2.38;;;;;;;;;;2087559;28;20033;-67
2022/05/12 05:33:30;;;;;;;7.43;2.13;;;;;;;;;;2088525;28;20033;-68
2022/05/12 05:34:49;;;;;;;7.72;2.25;;;;;;;;;;2085152;28;20036;-68
2022/05/12 05:36:08;;;;;;;8.45;2.60;;;;;;;;;;2087024;28;20498;-68
2022/05/12 05:37:27;;;;;;;9.13;2.70;;;;;;;;;;2088517;28;20451;-66
2022/05/12 05:38:46;;;;;;;8.35;2.25;;;;;;;;;;2088460;28;20048;-67
2022/05/12 05:40:05;;;;;;;6.78;2.30;;;;;;;;;;2088521;28;20120;-67
2022/05/12 05:41:24;;;;;;;6.65;2.00;;;;;;;;;;2087435;28;20036;-66
2022/05/12 05:42:45;;;;;;;6.35;2.17;;;;;;;;;;2087145;28;20418;-67
2022/05/12 05:44:04;;;;;;;6.15;2.28;;;;;;;;;;2083804;28;20029;-67
2022/05/12 05:45:23;;;;;;;8.70;2.20;;;;;;;;;;2077512;28;20459;-63
2022/05/12 05:46:42;;;;;;;6.13;2.20;;;;;;;;;;2074559;28;20041;-65
2022/05/12 05:48:03;;;;;;;8.73;2.72;;;;;;;;;;2085120;28;20113;-67
2022/05/12 05:49:22;;;;;;;9.68;2.30;;;;;;;;;;2087782;28;20041;-64
2022/05/12 05:53:58;;;;;;;8.57;1.90;;;;;;;;;;2088544;28;20032;-64
2022/05/12 05:55:17;;;;;;;5.95;1.75;;;;;;;;;;2087699;28;20518;-63
2022/05/12 05:56:36;;;;;;;11.50;2.50;;;;;;;;;;2088707;28;20040;-64
2022/05/12 05:57:59;;;;;;;7.13;2.13;;;;;;;;;;2089288;28;20489;-63
2022/05/12 05:59:18;;;;;;;4.43;2.00;;;;;;;;;;2088492;28;20586;-63
2022/05/12 06:00:37;;;;;;;3.92;1.92;;;;;;;;;;2089605;28;20025;-63
2022/05/12 06:01:57;;;;;;;10.02;2.00;;;;;;;;;;2080463;28;20022;-63
2022/05/12 06:03:16;;;;;;;9.10;2.33;;;;;;;;;;2077468;28;20021;-62
2022/05/12 06:04:35;;;;;;;10.23;2.10;;;;;;;;;;2082449;28;20033;-63
2022/05/12 06:05:55;;;;;;;12.90;2.38;;;;;;;;;;2086525;28;20479;-63
2022/05/12 06:07:14;;;;;;;4.72;2.17;;;;;;;;;;2087054;28;20399;-62
2022/05/12 06:08:33;;;;;;;6.78;2.03;;;;;;;;;;2080395;28;20033;-63
2022/05/12 06:09:52;;;;;;;5.80;1.73;;;;;;;;;;2086658;28;20116;-64
2022/05/12 06:11:11;;;;;;;7.35;2.25;;;;;;;;;;2088799;28;20454;-63
2022/05/12 06:12:30;;;;;;;10.98;2.40;;;;;;;;;;2091781;28;20387;-63
2022/05/12 06:13:49;;;;;;;14.40;2.53;;;;;;;;;;2091893;28;20029;-62
2022/05/12 06:15:09;;;;;;;8.25;1.73;;;;;;;;;;2091257;28;20033;-63
2022/05/12 06:16:28;;;;;;;5.05;2.17;;;;;;;;;;2091536;28;20120;-63
2022/05/12 06:17:48;;;;;;;5.22;1.88;;;;;;;;;;2092251;28;20032;-63
2022/05/12 06:19:07;;;;;;;8.63;2.17;;;;;;;;;;2091522;28;20383;-63
2022/05/12 06:20:26;;;;;;;9.38;2.40;;;;;;;;;;2090416;28;20499;-62
2022/05/12 06:21:45;;;;;;;8.95;2.10;;;;;;;;;;2092158;28;20018;-63
2022/05/12 06:23:04;;;;;;;8.45;2.38;;;;;;;;;;2091966;28;20025;-63
2022/05/12 06:24:23;;;;;;;5.63;2.05;;;;;;;;;;2092366;28;20041;-63
2022/05/12 06:25:42;;;;;;;7.00;1.70;;;;;;;;;;2091482;28;20033;-64
2022/05/12 06:27:00;;;;;;;6.45;1.33;;;;;;;;;;2082461;28;20021;-62
2022/05/12 06:28:19;;;;;;;4.55;1.30;;;;;;;;;;2088261;28;20112;-63
2022/05/12 06:29:41;;;;;;;7.43;1.80;;;;;;;;;;2089058;28;20076;-63
2022/05/12 06:31:00;;;;;;;9.20;1.80;;;;;;;;;;2083207;28;20026;-64
2022/05/12 06:32:19;;;;;;;7.78;2.10;;;;;;;;;;2086969;28;20030;-63
2022/05/12 06:33:40;;;;;;;8.23;2.05;;;;;;;;;;2090795;28;20115;-65
2022/05/12 06:35:00;;;;;;;4.03;1.85;;;;;;;;;;2092741;28;20064;-64
2022/05/12 06:36:19;;;;;;;10.93;1.52;;;;;;;;;;2090871;28;20029;-64
2022/05/12 06:37:38;;;;;;;4.78;1.27;;;;;;;;;;2091016;28;20029;-64
2022/05/12 06:38:57;;;;;;;8.05;2.45;;;;;;;;;;2090756;28;20115;-62
2022/05/12 06:40:16;;;;;;;5.90;1.27;;;;;;;;;;2081370;28;20025;-63
2022/05/12 06:41:35;;;;;;;7.18;1.85;;;;;;;;;;2079840;28;20025;-64
2022/05/12 06:42:54;;;;;;;3.28;1.40;;;;;;;;;;2087723;28;20025;-64
2022/05/12 06:44:14;;;;;;;12.38;1.33;;;;;;;;;;2082314;28;20030;-63
2022/05/12 06:45:33;;;;;;;7.65;1.35;;;;;;;;;;2078826;28;20022;-64
2022/05/12 06:46:52;;;;;;;4.00;1.50;;;;;;;;;;2088551;28;20029;-64
2022/05/12 06:48:11;;;;;;;5.65;1.55;;;;;;;;;;2092033;28;20020;-64
2022/05/12 06:49:30;;;;;;;5.95;1.70;;;;;;;;;;2082353;28;20037;-63
2022/05/12 06:50:49;;;;;;;7.25;1.83;;;;;;;;;;2087851;28;20483;-62
2022/05/12 06:52:09;;;;;;;7.13;1.92;;;;;;;;;;2082150;28;20115;-63
2022/05/12 06:53:28;;;;;;;3.75;0.90;;;;;;;;;;2084852;28;20495;-63
2022/05/12 06:54:47;;;;;;;8.30;2.42;;;;;;;;;;2090366;28;20032;-64
2022/05/12 06:56:07;;;;;;;6.90;1.80;;;;;;;;;;2082337;28;20108;-63
2022/05/12 06:57:28;;;;;;;6.72;1.95;;;;;;;;;;2079189;28;20026;-63
2022/05/12 06:58:47;;;;;;;6.00;2.05;;;;;;;;;;2077927;28;20154;-63
2022/05/12 07:00:08;;;;;;;9.02;1.75;;;;;;;;;;2087055;28;20037;-64
2022/05/12 07:01:28;;;;;;;4.53;1.58;;;;;;;;;;2091297;28;20025;-65
2022/05/12 07:02:47;;;;;;;6.30;2.13;;;;;;;;;;2091196;28;20017;-63
2022/05/12 07:04:06;;;;;;;6.70;1.70;;;;;;;;;;2091465;28;20422;-64
2022/05/12 07:05:26;;;;;;;8.30;1.88;;;;;;;;;;2089438;28;20487;-63
2022/05/12 07:06:45;;;;;;;7.13;1.58;;;;;;;;;;2092671;28;20028;-63
2022/05/12 07:08:05;;;;;;;9.02;2.03;;;;;;;;;;2090516;28;20032;-64
2022/05/12 07:09:24;;;;;;;3.38;1.60;;;;;;;;;;2088229;28;20048;-64
2022/05/12 07:10:43;;;;;;;6.68;1.92;;;;;;;;;;2090503;28;20033;-63
2022/05/12 07:12:03;;;;;;;9.13;1.70;;;;;;;;;;2089618;28;20495;-63
2022/05/12 07:13:24;;;;;;;5.22;1.70;;;;;;;;;;2090428;28;20040;-63
2022/05/12 07:14:43;;;;;;;6.80;1.40;;;;;;;;;;2081706;28;20025;-64
2022/05/12 07:16:03;;;;;;;8.02;1.65;;;;;;;;;;2087703;28;20433;-64
2022/05/12 07:17:22;;;;;;;7.85;2.17;;;;;;;;;;2090661;28;20390;-62
2022/05/12 07:18:42;;;;;;;4.97;1.48;;;;;;;;;;2091473;28;20115;-63
2022/05/12 07:26:35;;;;;;;7.22;2.03;;;;;;;;;;2088529;28;20021;-63
2022/05/12 07:27:54;;;;;;;5.82;1.20;;;;;;;;;;2090257;28;20025;-63
2022/05/12 07:29:15;;;;;;;8.20;1.85;;;;;;;;;;2089808;28;20052;-63
2022/05/12 07:31:00;;;;;;;7.32;2.13;;;;;;;;;;2087776;28;20029;-63
2022/05/12 07:32:13;;;;;;;9.95;1.98;;;;;;;;;;2088624;28;20060;-63
2022/05/12 07:33:34;;;;;;;8.60;1.67;;;;;;;;;;2088511;28;20037;-63
2022/05/12 07:34:53;;;;;;;5.05;1.42;;;;;;;;;;2088217;28;20104;-63
2022/05/12 07:36:13;;;;;;;8.63;1.40;;;;;;;;;;2089774;28;20025;-64
2022/05/12 07:37:32;;;;;;;11.05;1.80;;;;;;;;;;2080133;28;20022;-63
2022/05/12 07:38:52;;;;;;;8.02;1.58;;;;;;;;;;2085486;28;20037;-64
2022/05/12 07:40:11;;;;;;;11.43;2.05;;;;;;;;;;2088589;28;20037;-65
2022/05/12 07:41:29;;;;;;;3.08;1.30;;;;;;;;;;2088912;28;20021;-63
2022/05/12 07:42:50;;;;;;;6.57;1.60;;;;;;;;;;2088558;28;20410;-63
2022/05/12 07:44:09;;;;;;;6.57;1.42;;;;;;;;;;2079694;28;20496;-63
2022/05/12 07:45:28;;;;;;;8.40;1.38;;;;;;;;;;2081125;28;20042;-63
2022/05/12 07:46:48;;;;;;;6.25;1.38;;;;;;;;;;2086687;28;20029;-64
2022/05/12 07:48:07;;;;;;;2.92;0.90;;;;;;;;;;2087720;28;20021;-63
2022/05/12 07:49:28;;;;;;;2.85;1.17;;;;;;;;;;2087846;28;20410;-64
2022/05/12 07:50:47;;;;;;;5.05;1.00;;;;;;;;;;2075520;28;20516;-64
2022/05/12 07:52:07;;;;;;;7.85;1.17;;;;;;;;;;2074439;28;20033;-63
2022/05/12 07:53:26;;;;;;;9.23;1.42;;;;;;;;;;2078218;28;20025;-64
2022/05/12 07:54:45;;;;;;;10.38;2.28;;;;;;;;;;2084761;28;20071;-65
2022/05/12 07:56:05;;;;;;;4.63;1.40;;;;;;;;;;2080858;28;20029;-63
2022/05/12 07:57:24;;;;;;;4.57;1.67;;;;;;;;;;2084207;28;20029;-63
2022/05/12 07:58:43;;;;;;;6.10;1.10;;;;;;;;;;2090007;28;20041;-63
2022/05/12 08:00:02;;;;;;;3.40;1.30;;;;;;;;;;2088883;28;20025;-63
2022/05/12 08:01:22;;;;;;;4.03;1.00;;;;;;;;;;2088905;28;20024;-63
2022/05/12 08:02:41;;;;;;;2.67;1.08;;;;;;;;;;2088253;28;20025;-63
2022/05/12 08:04:00;;;;;;;3.80;1.00;;;;;;;;;;2089440;28;20029;-64
2022/05/12 08:05:18;;;;;;;7.97;1.55;;;;;;;;;;2090095;28;20029;-64
2022/05/12 08:06:39;;;;;;;5.80;1.90;;;;;;;;;;2082004;28;20037;-63
2022/05/12 08:07:58;;;;;;;4.35;1.50;;;;;;;;;;2086700;28;20068;-63
2022/05/12 08:09:17;;;;;;;7.95;1.60;;;;;;;;;;2081168;28;20026;-63